createdAt,value
2023-02-19T00:01:22.545Z,9.70
2023-02-19T00:03:52.396Z,9.72
2023-02-19T00:06:20.638Z,9.70
2023-02-19T00:08:47.468Z,9.70
2023-02-19T00:11:19.887Z,9.66
2023-02-19T00:13:49.084Z,9.65
2023-02-19T00:16:18.431Z,9.72
2023-02-19T00:18:45.972Z,9.70
2023-02-19T00:21:13.252Z,9.77
2023-02-19T00:23:39.973Z,9.65
2023-02-19T00:26:18.188Z,9.75
2023-02-19T00:28:45.946Z,9.77
2023-02-19T00:31:24.963Z,9.76
2023-02-19T00:33:55.397Z,9.79
2023-02-19T00:36:22.684Z,9.85
2023-02-19T00:38:49.947Z,9.72
2023-02-19T00:41:21.523Z,9.81
2023-02-19T00:43:56.623Z,9.85
2023-02-19T00:46:32.661Z,9.81
2023-02-19T00:49:00.274Z,9.76
2023-02-19T00:51:30.446Z,9.80
2023-02-19T00:53:57.696Z,9.81
2023-02-19T00:56:24.260Z,9.79
2023-02-19T00:58:51.483Z,9.80
2023-02-19T01:01:19.227Z,9.77
2023-02-19T01:03:46.874Z,9.69
2023-02-19T01:06:15.424Z,9.74
2023-02-19T01:08:42.297Z,9.68
2023-02-19T01:13:42.035Z,9.70
2023-02-19T01:16:08.784Z,9.60
2023-02-19T01:18:35.796Z,9.62
2023-02-19T01:21:12.205Z,9.61
2023-02-19T01:23:39.528Z,9.72
2023-02-19T01:26:08.138Z,9.67
2023-02-19T01:28:35.534Z,9.66
2023-02-19T01:31:07.756Z,9.69
2023-02-19T01:33:35.277Z,9.74
2023-02-19T01:36:05.617Z,9.68
2023-02-19T01:38:32.176Z,9.66
2023-02-19T01:41:00.859Z,9.71
2023-02-19T01:43:28.021Z,9.74
2023-02-19T01:45:55.324Z,9.71
2023-02-19T01:48:33.168Z,9.77
2023-02-19T01:51:07.214Z,9.72
2023-02-19T01:53:39.379Z,9.70
2023-02-19T01:56:08.352Z,9.67
2023-02-19T01:58:36.699Z,9.68
2023-02-19T02:03:41.977Z,9.65
2023-02-19T02:06:15.931Z,9.70
2023-02-19T02:09:01.146Z,9.81
2023-02-19T02:11:28.248Z,9.80
2023-02-19T02:13:55.332Z,9.82
2023-02-19T02:16:46.820Z,9.91
2023-02-19T02:19:48.575Z,9.84
2023-02-19T02:22:45.753Z,9.86
2023-02-19T02:25:50.710Z,9.83
2023-02-19T02:28:34.158Z,9.86
2023-02-19T02:31:14.965Z,9.84
2023-02-19T02:33:56.236Z,9.77
2023-02-19T02:36:31.341Z,9.80
2023-02-19T02:38:58.613Z,9.80
2023-02-19T02:41:25.714Z,9.71
2023-02-19T02:43:52.215Z,9.67
2023-02-19T02:46:28.567Z,9.61
2023-02-19T02:48:58.153Z,9.58
2023-02-19T02:51:41.449Z,9.66
2023-02-19T02:54:39.419Z,9.73
2023-02-19T02:57:09.407Z,9.66
2023-02-19T02:59:39.813Z,9.71
2023-02-19T03:02:20.058Z,9.69
2023-02-19T03:05:26.644Z,9.67
2023-02-19T03:07:54.473Z,9.67
2023-02-19T03:10:26.917Z,9.66
2023-02-19T03:13:16.159Z,9.65
2023-02-19T03:16:20.498Z,9.80
2023-02-19T03:19:10.667Z,9.70
2023-02-19T03:21:40.278Z,9.65
2023-02-19T03:24:29.805Z,9.69
2023-02-19T03:26:59.436Z,9.65
2023-02-19T03:29:29.714Z,9.59
2023-02-19T03:32:02.057Z,9.51
2023-02-19T03:34:51.794Z,9.54
2023-02-19T03:37:30.141Z,9.53
2023-02-19T03:39:57.556Z,9.60
2023-02-19T03:43:02.075Z,9.59
2023-02-19T03:45:48.332Z,9.59
2023-02-19T03:48:31.143Z,9.59
2023-02-19T03:51:09.277Z,9.60
2023-02-19T03:54:13.227Z,9.50
2023-02-19T03:57:00.024Z,9.48
2023-02-19T03:59:34.891Z,9.48
2023-02-19T04:02:07.810Z,9.49
2023-02-19T04:04:38.151Z,9.50
2023-02-19T04:07:05.596Z,9.54
2023-02-19T04:09:38.230Z,9.48
2023-02-19T04:12:06.894Z,9.50
2023-02-19T04:14:39.864Z,9.54
2023-02-19T04:17:11.759Z,9.53
2023-02-19T04:19:42.606Z,9.46
2023-02-19T04:22:12.189Z,9.65
2023-02-19T04:24:43.210Z,9.55
2023-02-19T04:27:10.199Z,9.43
2023-02-19T04:29:39.079Z,9.47
2023-02-19T04:32:06.375Z,9.42
2023-02-19T04:34:33.396Z,9.43
2023-02-19T04:36:59.896Z,9.51
2023-02-19T04:39:26.446Z,9.50
2023-02-19T04:41:52.962Z,9.52
2023-02-19T04:44:19.646Z,9.52
2023-02-19T04:46:46.230Z,9.47
2023-02-19T04:49:12.787Z,9.50
2023-02-19T04:51:40.174Z,9.55
2023-02-19T04:54:06.766Z,9.45
2023-02-19T04:56:33.478Z,9.52
2023-02-19T04:59:00.255Z,9.48
2023-02-19T05:01:26.879Z,9.61
2023-02-19T05:03:53.442Z,9.63
2023-02-19T05:06:20.109Z,9.45
2023-02-19T05:08:46.681Z,9.46
2023-02-19T05:11:13.479Z,9.44
2023-02-19T05:13:40.639Z,9.41
2023-02-19T05:16:16.331Z,9.40
2023-02-19T05:18:44.646Z,9.34
2023-02-19T05:21:12.506Z,9.25
2023-02-19T05:23:39.392Z,9.18
2023-02-19T05:26:07.702Z,9.14
2023-02-19T05:28:34.505Z,9.18
2023-02-19T05:31:06.721Z,9.15
2023-02-19T05:33:33.529Z,9.13
2023-02-19T05:36:00.185Z,9.17
2023-02-19T05:38:26.702Z,9.04
2023-02-19T05:40:53.246Z,9.09
2023-02-19T05:43:19.762Z,9.01
2023-02-19T05:48:24.018Z,8.94
2023-02-19T05:50:50.551Z,9.07
2023-02-19T05:53:17.184Z,9.01
2023-02-19T05:55:43.714Z,9.03
2023-02-19T05:58:10.234Z,9.07
2023-02-19T06:00:36.793Z,9.07
2023-02-19T06:03:03.450Z,9.04
2023-02-19T06:05:30.035Z,9.04
2023-02-19T06:07:56.555Z,9.06
2023-02-19T06:10:23.548Z,9.08
2023-02-19T06:12:53.350Z,9.04
2023-02-19T06:15:20.553Z,9.02
2023-02-19T06:17:47.244Z,8.96
2023-02-19T06:22:45.266Z,8.97
2023-02-19T06:25:12.872Z,9.02
2023-02-19T06:27:39.688Z,9.02
2023-02-19T06:30:06.730Z,9.00
2023-02-19T06:32:33.375Z,9.11
2023-02-19T06:34:59.922Z,9.03
2023-02-19T06:37:26.631Z,9.05
2023-02-19T06:39:53.221Z,9.04
2023-02-19T06:42:19.733Z,9.01
2023-02-19T06:44:46.229Z,9.05
2023-02-19T06:47:12.767Z,9.07
2023-02-19T06:49:40.268Z,9.05
2023-02-19T06:52:07.345Z,9.11
2023-02-19T06:54:33.827Z,9.15
2023-02-19T06:57:00.483Z,9.18
2023-02-19T06:59:27.206Z,9.23
2023-02-19T07:01:53.764Z,9.14
2023-02-19T07:04:20.330Z,9.19
2023-02-19T07:06:46.893Z,9.20
2023-02-19T07:09:13.501Z,9.21
2023-02-19T07:11:40.918Z,9.24
2023-02-19T07:14:17.361Z,9.21
2023-02-19T07:16:44.480Z,9.21
2023-02-19T07:19:12.084Z,9.19
2023-02-19T07:21:39.144Z,9.23
2023-02-19T07:24:06.056Z,9.20
2023-02-19T07:26:32.954Z,9.21
2023-02-19T07:28:59.602Z,9.22
2023-02-19T07:36:28.748Z,9.23
2023-02-19T07:38:56.959Z,9.27
2023-02-19T07:41:24.734Z,9.24
2023-02-19T07:43:52.255Z,9.29
2023-02-19T07:46:19.197Z,9.31
2023-02-19T07:48:45.966Z,9.38
2023-02-19T07:53:52.538Z,9.38
2023-02-19T07:56:19.836Z,9.44
2023-02-19T07:58:46.453Z,9.44
2023-02-19T08:01:19.298Z,9.50
2023-02-19T08:06:17.587Z,9.36
2023-02-19T08:08:44.151Z,9.38
2023-02-19T08:11:29.263Z,9.40
2023-02-19T08:16:42.650Z,9.41
2023-02-19T08:19:10.173Z,9.39
2023-02-19T08:21:36.734Z,9.39
2023-02-19T08:24:03.486Z,9.33
2023-02-19T08:26:29.995Z,9.33
2023-02-19T08:28:56.535Z,9.44
2023-02-19T08:31:23.175Z,9.40
2023-02-19T08:33:49.781Z,9.34
2023-02-19T08:36:16.327Z,9.34
2023-02-19T08:41:14.992Z,9.45
2023-02-19T08:43:42.526Z,9.39
2023-02-19T08:46:10.700Z,9.42
2023-02-19T08:48:38.818Z,9.47
2023-02-19T08:51:08.833Z,9.55
2023-02-19T08:53:37.230Z,9.55
2023-02-19T08:56:11.791Z,9.58
2023-02-19T08:58:38.685Z,9.59
2023-02-19T09:01:14.138Z,9.68
2023-02-19T09:03:41.649Z,9.71
2023-02-19T09:08:42.641Z,9.74
2023-02-19T09:11:09.637Z,9.69
2023-02-19T09:13:36.405Z,9.72
2023-02-19T09:18:43.264Z,9.74
2023-02-19T09:21:10.154Z,9.82
2023-02-19T09:23:37.390Z,9.89
2023-02-19T09:26:07.094Z,9.91
2023-02-19T09:28:33.821Z,9.93
2023-02-19T09:31:05.323Z,9.95
2023-02-19T09:33:32.166Z,9.99
2023-02-19T09:36:00.718Z,10.05
2023-02-19T09:38:27.780Z,10.05
2023-02-19T09:40:54.397Z,10.03
2023-02-19T09:43:23.255Z,10.02
2023-02-19T09:45:56.110Z,10.02
2023-02-19T09:48:22.735Z,10.00
2023-02-19T09:50:50.139Z,10.17
2023-02-19T09:53:25.197Z,10.16
2023-02-19T09:55:53.472Z,10.22
2023-02-19T09:58:28.203Z,10.33
2023-02-19T10:00:56.936Z,10.42
2023-02-19T10:03:31.883Z,10.64
2023-02-19T10:06:02.036Z,10.72
2023-02-19T10:08:33.059Z,10.79
2023-02-19T10:11:03.427Z,10.88
2023-02-19T10:13:35.373Z,10.96
2023-02-19T10:16:04.997Z,11.15
2023-02-19T10:18:42.802Z,11.15
2023-02-19T10:21:28.323Z,11.15
2023-02-19T10:24:00.264Z,11.16
2023-02-19T10:26:27.670Z,11.19
2023-02-19T10:28:55.614Z,11.20
2023-02-19T10:31:24.618Z,11.12
2023-02-19T10:34:02.128Z,11.16
2023-02-19T10:36:33.261Z,11.18
2023-02-19T10:41:44.112Z,11.19
2023-02-19T10:44:24.310Z,11.16
2023-02-19T10:46:55.307Z,11.22
2023-02-19T10:49:30.546Z,11.16
2023-02-19T10:52:05.533Z,11.17
2023-02-19T10:54:34.804Z,11.13
2023-02-19T10:57:19.540Z,11.21
2023-02-19T10:59:51.177Z,11.13
2023-02-19T11:02:20.480Z,11.09
2023-02-19T11:05:02.910Z,10.99
2023-02-19T11:07:29.736Z,11.03
2023-02-19T11:09:57.268Z,11.09
2023-02-19T11:12:28.386Z,11.03
2023-02-19T11:14:55.052Z,11.06
2023-02-19T11:17:29.817Z,11.10
2023-02-19T11:20:00.134Z,11.02
2023-02-19T11:22:33.798Z,10.88
2023-02-19T11:25:14.662Z,10.81
2023-02-19T11:27:54.301Z,10.67
2023-02-19T11:30:28.070Z,10.60
2023-02-19T11:35:25.998Z,11.09
2023-02-19T11:38:00.958Z,10.71
2023-02-19T11:40:39.206Z,10.77
2023-02-19T11:43:08.271Z,10.74
2023-02-19T11:46:00.976Z,10.80
2023-02-19T11:48:39.685Z,10.92
2023-02-19T11:54:15.208Z,11.18
2023-02-19T11:56:43.271Z,11.23
2023-02-19T11:59:41.066Z,11.20
2023-02-19T12:02:34.636Z,11.29
2023-02-19T12:05:29.790Z,11.13
2023-02-19T12:08:21.337Z,11.16
2023-02-19T12:11:06.654Z,11.14
2023-02-19T12:13:40.824Z,11.12
2023-02-19T12:16:10.138Z,11.20
2023-02-19T12:19:18.299Z,11.16
2023-02-19T12:22:16.979Z,11.08
2023-02-19T12:25:00.014Z,11.18
2023-02-19T12:27:55.767Z,11.15
2023-02-19T12:30:28.348Z,11.22
2023-02-19T12:33:25.627Z,11.27
2023-02-19T12:36:16.773Z,11.31
2023-02-19T12:41:43.223Z,11.06
2023-02-19T12:44:17.167Z,11.13
2023-02-19T12:46:51.581Z,11.06
2023-02-19T12:49:31.818Z,11.08
2023-02-19T12:54:56.621Z,11.24
2023-02-19T12:57:27.183Z,11.19
2023-02-19T13:00:13.443Z,11.37
2023-02-19T13:02:53.929Z,11.42
2023-02-19T13:05:25.980Z,11.41
2023-02-19T13:08:03.258Z,11.45
2023-02-19T13:10:40.059Z,11.24
2023-02-19T13:13:15.490Z,11.22
2023-02-19T13:15:46.538Z,11.04
2023-02-19T13:18:30.239Z,10.94
2023-02-19T13:20:56.992Z,10.92
2023-02-19T13:23:53.770Z,10.84
2023-02-19T13:26:50.856Z,10.73
2023-02-19T13:29:34.601Z,10.67
2023-02-19T13:32:23.895Z,10.80
2023-02-19T13:35:28.434Z,10.76
2023-02-19T13:38:00.030Z,10.76
2023-02-19T13:40:39.493Z,10.83
2023-02-19T13:43:40.221Z,10.90
2023-02-19T13:46:10.690Z,10.85
2023-02-19T13:48:39.265Z,10.99
2023-02-19T13:51:26.520Z,10.95
2023-02-19T13:53:55.570Z,10.71
2023-02-19T13:56:34.409Z,10.63
2023-02-19T13:59:24.856Z,10.51
2023-02-19T14:01:54.126Z,10.44
2023-02-19T14:04:32.661Z,10.28
2023-02-19T14:07:05.015Z,10.22
2023-02-19T14:09:34.382Z,10.30
2023-02-19T14:12:10.302Z,10.34
2023-02-19T14:14:38.027Z,10.39
2023-02-19T14:17:33.318Z,10.43
2023-02-19T14:20:31.492Z,10.45
2023-02-19T14:23:14.882Z,10.63
2023-02-19T14:25:45.430Z,10.68
2023-02-19T14:28:33.629Z,10.55
2023-02-19T14:31:09.045Z,10.67
2023-02-19T14:33:40.367Z,10.73
2023-02-19T14:36:19.404Z,10.71
2023-02-19T14:38:53.610Z,10.70
2023-02-19T14:41:23.416Z,10.82
2023-02-19T14:43:52.915Z,10.75
2023-02-19T14:46:33.596Z,10.75
2023-02-19T14:49:19.333Z,10.75
2023-02-19T14:51:51.406Z,10.80
2023-02-19T14:54:27.831Z,10.81
2023-02-19T14:59:29.272Z,10.78
2023-02-19T15:02:04.381Z,10.87
2023-02-19T15:04:36.883Z,10.78
2023-02-19T15:07:07.857Z,10.86
2023-02-19T15:09:43.344Z,10.90
2023-02-19T15:12:17.308Z,10.88
2023-02-19T15:14:45.358Z,10.93
2023-02-19T15:17:19.467Z,10.83
2023-02-19T15:19:46.142Z,10.87
2023-02-19T15:22:18.603Z,10.91
2023-02-19T15:27:23.322Z,10.75
2023-02-19T15:29:53.648Z,10.71
2023-02-19T15:32:26.789Z,10.66
2023-02-19T15:35:01.639Z,10.65
2023-02-19T15:37:31.428Z,10.57
2023-02-19T15:42:38.445Z,10.56
2023-02-19T15:45:23.695Z,10.57
2023-02-19T15:47:50.234Z,10.62
2023-02-19T15:50:22.535Z,10.60
2023-02-19T15:52:52.558Z,10.56
2023-02-19T15:55:32.258Z,10.53
2023-02-19T15:58:13.472Z,10.53
2023-02-19T16:00:50.646Z,10.43
2023-02-19T16:03:25.647Z,10.51
2023-02-19T16:05:59.498Z,10.49
2023-02-19T16:08:34.745Z,10.43
2023-02-19T16:11:03.902Z,10.45
2023-02-19T16:13:33.520Z,10.41
2023-02-19T16:16:22.951Z,10.33
2023-02-19T16:18:51.556Z,10.27
2023-02-19T16:21:21.769Z,10.33
2023-02-19T16:23:54.646Z,10.29
2023-02-19T16:26:21.933Z,10.28
2023-02-19T16:28:55.485Z,10.29
2023-02-19T16:31:23.745Z,10.24
2023-02-19T16:33:51.430Z,10.26
2023-02-19T16:36:34.848Z,10.31
2023-02-19T16:39:07.125Z,10.14
2023-02-19T16:41:34.088Z,10.06
2023-02-19T16:44:06.578Z,10.10
2023-02-19T16:46:33.377Z,10.10
2023-02-19T16:49:00.007Z,10.10
2023-02-19T16:51:27.908Z,10.16
2023-02-19T16:53:54.490Z,10.29
2023-02-19T16:56:23.182Z,10.21
2023-02-19T16:58:50.501Z,10.17
2023-02-19T17:01:17.866Z,10.10
2023-02-19T17:03:47.161Z,10.12
2023-02-19T17:06:14.319Z,10.16
2023-02-19T17:08:44.637Z,10.16
2023-02-19T17:11:14.605Z,10.11
2023-02-19T17:13:42.469Z,10.20
2023-02-19T17:16:18.178Z,10.11
2023-02-19T17:18:44.865Z,10.12
2023-02-19T17:21:32.006Z,10.06
2023-02-19T17:23:58.593Z,10.06
2023-02-19T17:26:28.122Z,10.04
2023-02-19T17:29:01.603Z,10.06
2023-02-19T17:31:28.306Z,10.01
2023-02-19T17:33:55.124Z,10.02
2023-02-19T17:36:33.023Z,9.99
2023-02-19T17:39:01.879Z,9.91
2023-02-19T17:44:01.770Z,9.91
2023-02-19T17:46:28.319Z,9.92
2023-02-19T17:48:55.428Z,9.86
2023-02-19T17:51:22.370Z,9.87
2023-02-19T17:53:49.409Z,9.89
2023-02-19T17:56:19.425Z,9.94
2023-02-19T17:58:46.291Z,9.93
2023-02-19T18:01:13.488Z,9.94
2023-02-19T18:03:40.308Z,9.91
2023-02-19T18:08:38.734Z,9.96
2023-02-19T18:13:44.903Z,10.02
2023-02-19T18:16:11.798Z,9.95
2023-02-19T18:18:38.364Z,9.91
2023-02-19T18:21:09.529Z,9.91
2023-02-19T18:23:36.390Z,9.93
2023-02-19T18:28:38.004Z,9.88
2023-02-19T18:31:04.852Z,9.95
2023-02-19T18:33:31.564Z,9.89
2023-02-19T18:35:58.094Z,9.86
2023-02-19T18:38:24.704Z,9.86
2023-02-19T18:43:28.299Z,9.76
2023-02-19T18:45:54.867Z,9.76
2023-02-19T18:48:21.526Z,9.84
2023-02-19T18:50:48.046Z,9.77
2023-02-19T18:53:14.588Z,9.78
2023-02-19T18:55:41.198Z,9.83
2023-02-19T18:58:07.786Z,9.80
2023-02-19T19:00:34.348Z,9.85
2023-02-19T19:03:00.954Z,9.80
2023-02-19T19:07:59.707Z,9.72
2023-02-19T19:10:26.950Z,9.69
2023-02-19T19:15:26.176Z,9.70
2023-02-19T19:17:52.862Z,9.69
2023-02-19T19:22:53.856Z,9.63
2023-02-19T19:25:23.083Z,9.58
2023-02-19T19:27:51.100Z,9.67
2023-02-19T19:30:20.237Z,9.66
2023-02-19T19:32:51.455Z,9.67
2023-02-19T19:35:19.569Z,9.63
2023-02-19T19:40:23.635Z,9.68
2023-02-19T19:42:52.248Z,11.04
2023-02-19T19:45:18.900Z,10.90
2023-02-19T19:47:45.683Z,11.01
2023-02-19T19:50:14.569Z,10.89
2023-02-19T19:52:41.273Z,10.96
2023-02-19T19:55:08.266Z,10.75
2023-02-19T19:57:34.793Z,10.85
2023-02-19T20:00:01.680Z,10.28
2023-02-19T20:02:28.489Z,10.18
2023-02-19T20:04:55.174Z,10.29
2023-02-19T20:07:22.018Z,10.21
2023-02-19T20:09:49.672Z,10.17
2023-02-19T20:12:17.492Z,10.42
2023-02-19T20:14:46.366Z,10.17
2023-02-19T20:17:13.951Z,10.00
2023-02-19T20:19:40.753Z,9.97
2023-02-19T20:22:07.306Z,9.96
2023-02-19T20:24:33.898Z,9.83
2023-02-19T20:27:02.149Z,9.72
2023-02-19T20:29:31.104Z,9.73
2023-02-19T20:32:02.591Z,9.77
2023-02-19T20:34:30.211Z,9.72
2023-02-19T20:36:57.022Z,9.70
2023-02-19T20:39:28.800Z,9.65
2023-02-19T20:41:56.420Z,9.64
2023-02-19T20:44:23.499Z,9.61
2023-02-19T20:46:51.429Z,9.59
2023-02-19T20:52:02.100Z,9.62
2023-02-19T20:54:31.444Z,9.57
2023-02-19T20:57:00.559Z,9.57
2023-02-19T21:02:08.594Z,9.52
2023-02-19T21:04:38.554Z,9.48
2023-02-19T21:07:05.094Z,9.52
2023-02-19T21:09:32.246Z,9.57
2023-02-19T21:11:59.989Z,9.52
2023-02-19T21:14:26.812Z,9.52
2023-02-19T21:19:32.228Z,9.54
2023-02-19T21:21:58.792Z,9.46
2023-02-19T21:24:25.395Z,9.46
2023-02-19T21:26:51.971Z,9.50
2023-02-19T21:29:20.874Z,9.51
2023-02-19T21:31:55.664Z,9.55
2023-02-19T21:34:25.700Z,9.55
2023-02-19T21:36:53.141Z,9.56
2023-02-19T21:39:22.008Z,9.52
2023-02-19T21:41:48.834Z,9.53
2023-02-19T21:44:15.804Z,9.61
2023-02-19T21:46:42.403Z,9.59
2023-02-19T21:49:09.920Z,9.52
2023-02-19T21:54:21.104Z,9.70
2023-02-19T21:56:48.772Z,10.21
2023-02-19T21:59:15.610Z,9.93
2023-02-19T22:01:43.384Z,9.91
2023-02-19T22:04:14.018Z,9.90
2023-02-19T22:06:41.101Z,9.83
2023-02-19T22:09:08.818Z,9.81
2023-02-19T22:11:35.601Z,9.77
2023-02-19T22:14:02.139Z,9.64
2023-02-19T22:16:28.997Z,9.60
2023-02-19T22:18:57.998Z,9.60
2023-02-19T22:21:27.463Z,9.65
2023-02-19T22:23:55.088Z,9.64
2023-02-19T22:26:27.031Z,9.56
2023-02-19T22:28:54.271Z,9.48
2023-02-19T22:31:23.476Z,9.51
2023-02-19T22:33:50.882Z,9.52
2023-02-19T22:38:55.042Z,9.47
2023-02-19T22:41:22.178Z,9.60
2023-02-19T22:43:49.841Z,9.58
2023-02-19T22:46:21.364Z,9.54
2023-02-19T22:48:48.376Z,9.51
2023-02-19T22:51:17.611Z,9.45
2023-02-19T22:54:02.876Z,9.40
2023-02-19T22:59:06.603Z,9.40
2023-02-19T23:01:33.185Z,9.37
2023-02-19T23:04:01.286Z,9.50
2023-02-19T23:06:30.301Z,9.37
2023-02-19T23:08:58.535Z,9.42
2023-02-19T23:11:27.818Z,9.35
2023-02-19T23:13:54.698Z,9.44
2023-02-19T23:16:21.791Z,9.39
2023-02-19T23:18:48.950Z,9.33
2023-02-19T23:21:16.246Z,9.36
2023-02-19T23:23:43.624Z,9.28
2023-02-19T23:26:10.751Z,9.36
2023-02-19T23:28:39.910Z,9.32
2023-02-19T23:31:06.902Z,9.31
2023-02-19T23:33:33.820Z,9.27
2023-02-19T23:36:00.364Z,9.31
2023-02-19T23:38:27.193Z,9.31
2023-02-19T23:40:53.988Z,9.28
2023-02-19T23:43:21.193Z,9.20
2023-02-19T23:45:47.911Z,9.27
2023-02-19T23:48:14.596Z,9.22
2023-02-19T23:53:12.735Z,9.22
2023-02-19T23:55:39.290Z,9.15
2023-02-19T23:58:05.859Z,9.25
